sensor_id;sensor_type;location;lat;lon;timestamp;P1;durP1;ratioP1;P2;durP2;ratioP2
45368;SDS011;51342;55.250;37.668;2023-07-22T00:04:53;3.25;;;1.83;;
45368;SDS011;51342;55.250;37.668;2023-07-22T00:07:24;5.45;;;1.65;;
45368;SDS011;51342;55.250;37.668;2023-07-22T00:09:56;3.70;;;1.70;;
45368;SDS011;51342;55.250;37.668;2023-07-22T00:12:27;2.55;;;1.55;;
45368;SDS011;51342;55.250;37.668;2023-07-22T00:14:58;3.13;;;1.83;;
45368;SDS011;51342;55.250;37.668;2023-07-22T00:17:30;4.10;;;1.98;;
45368;SDS011;51342;55.250;37.668;2023-07-22T00:20:01;3.33;;;1.70;;
45368;SDS011;51342;55.250;37.668;2023-07-22T00:22:35;2.70;;;1.75;;
45368;SDS011;51342;55.250;37.668;2023-07-22T00:25:07;2.72;;;1.55;;
45368;SDS011;51342;55.250;37.668;2023-07-22T00:27:43;5.35;;;1.80;;
45368;SDS011;51342;55.250;37.668;2023-07-22T00:30:15;3.58;;;1.95;;
45368;SDS011;51342;55.250;37.668;2023-07-22T00:32:46;2.58;;;1.83;;
45368;SDS011;51342;55.250;37.668;2023-07-22T00:35:18;2.65;;;1.70;;
45368;SDS011;51342;55.250;37.668;2023-07-22T00:37:49;3.63;;;1.70;;
45368;SDS011;51342;55.250;37.668;2023-07-22T00:40:20;4.57;;;1.75;;
45368;SDS011;51342;55.250;37.668;2023-07-22T00:42:52;2.70;;;2.00;;
45368;SDS011;51342;55.250;37.668;2023-07-22T00:45:23;3.65;;;1.60;;
45368;SDS011;51342;55.250;37.668;2023-07-22T00:47:55;2.38;;;1.75;;
45368;SDS011;51342;55.250;37.668;2023-07-22T00:50:28;3.20;;;2.00;;
45368;SDS011;51342;55.250;37.668;2023-07-22T00:53:00;3.35;;;1.88;;
45368;SDS011;51342;55.250;37.668;2023-07-22T00:55:32;6.90;;;2.00;;
45368;SDS011;51342;55.250;37.668;2023-07-22T00:58:05;3.97;;;1.77;;
45368;SDS011;51342;55.250;37.668;2023-07-22T01:00:36;2.20;;;1.50;;
45368;SDS011;51342;55.250;37.668;2023-07-22T01:03:08;3.47;;;1.65;;
45368;SDS011;51342;55.250;37.668;2023-07-22T01:05:39;3.00;;;1.73;;
45368;SDS011;51342;55.250;37.668;2023-07-22T01:08:12;3.83;;;1.73;;
45368;SDS011;51342;55.250;37.668;2023-07-22T01:10:44;4.47;;;1.92;;
45368;SDS011;51342;55.250;37.668;2023-07-22T01:13:15;3.47;;;1.65;;
45368;SDS011;51342;55.250;37.668;2023-07-22T01:15:46;4.60;;;1.60;;
45368;SDS011;51342;55.250;37.668;2023-07-22T01:18:18;4.55;;;2.33;;
45368;SDS011;51342;55.250;37.668;2023-07-22T01:20:49;3.17;;;1.42;;
45368;SDS011;51342;55.250;37.668;2023-07-22T01:23:21;3.83;;;1.88;;
45368;SDS011;51342;55.250;37.668;2023-07-22T01:25:53;2.92;;;1.80;;
45368;SDS011;51342;55.250;37.668;2023-07-22T01:28:24;4.30;;;1.58;;
45368;SDS011;51342;55.250;37.668;2023-07-22T01:30:56;2.30;;;1.55;;
45368;SDS011;51342;55.250;37.668;2023-07-22T01:33:28;3.33;;;1.60;;
45368;SDS011;51342;55.250;37.668;2023-07-22T01:36:00;2.10;;;1.73;;
45368;SDS011;51342;55.250;37.668;2023-07-22T01:38:35;3.80;;;1.50;;
45368;SDS011;51342;55.250;37.668;2023-07-22T01:41:06;6.45;;;2.10;;
45368;SDS011;51342;55.250;37.668;2023-07-22T01:43:38;4.95;;;1.77;;
45368;SDS011;51342;55.250;37.668;2023-07-22T01:46:09;9.88;;;1.88;;
45368;SDS011;51342;55.250;37.668;2023-07-22T01:48:40;4.80;;;1.90;;
45368;SDS011;51342;55.250;37.668;2023-07-22T01:51:12;2.28;;;1.58;;
45368;SDS011;51342;55.250;37.668;2023-07-22T01:53:44;3.05;;;1.92;;
45368;SDS011;51342;55.250;37.668;2023-07-22T01:56:16;4.53;;;1.88;;
45368;SDS011;51342;55.250;37.668;2023-07-22T01:58:47;4.53;;;1.60;;
45368;SDS011;51342;55.250;37.668;2023-07-22T02:01:20;3.25;;;1.52;;
45368;SDS011;51342;55.250;37.668;2023-07-22T02:06:58;1.65;;;1.35;;
45368;SDS011;51342;55.250;37.668;2023-07-22T02:09:29;4.15;;;1.77;;
45368;SDS011;51342;55.250;37.668;2023-07-22T02:12:01;4.55;;;1.83;;
45368;SDS011;51342;55.250;37.668;2023-07-22T02:14:33;3.08;;;1.60;;
45368;SDS011;51342;55.250;37.668;2023-07-22T02:17:04;3.55;;;1.52;;
45368;SDS011;51342;55.250;37.668;2023-07-22T02:19:36;3.45;;;1.90;;
45368;SDS011;51342;55.250;37.668;2023-07-22T02:22:08;5.22;;;1.90;;
45368;SDS011;51342;55.250;37.668;2023-07-22T02:24:39;3.72;;;1.88;;
45368;SDS011;51342;55.250;37.668;2023-07-22T02:27:10;4.03;;;1.70;;
45368;SDS011;51342;55.250;37.668;2023-07-22T02:29:42;3.38;;;1.50;;
45368;SDS011;51342;55.250;37.668;2023-07-22T02:32:13;2.50;;;1.63;;
45368;SDS011;51342;55.250;37.668;2023-07-22T02:34:44;3.63;;;1.50;;
45368;SDS011;51342;55.250;37.668;2023-07-22T02:37:16;4.18;;;1.58;;
45368;SDS011;51342;55.250;37.668;2023-07-22T02:39:47;4.53;;;2.10;;
45368;SDS011;51342;55.250;37.668;2023-07-22T02:42:19;3.30;;;1.80;;
45368;SDS011;51342;55.250;37.668;2023-07-22T02:44:50;2.92;;;1.60;;
45368;SDS011;51342;55.250;37.668;2023-07-22T02:47:21;3.03;;;1.60;;
45368;SDS011;51342;55.250;37.668;2023-07-22T02:49:53;2.13;;;1.35;;
45368;SDS011;51342;55.250;37.668;2023-07-22T02:52:24;3.80;;;1.50;;
45368;SDS011;51342;55.250;37.668;2023-07-22T02:57:39;3.13;;;1.65;;
45368;SDS011;51342;55.250;37.668;2023-07-22T03:00:12;4.07;;;1.45;;
45368;SDS011;51342;55.250;37.668;2023-07-22T03:02:44;4.47;;;1.73;;
45368;SDS011;51342;55.250;37.668;2023-07-22T03:05:16;1.98;;;1.40;;
45368;SDS011;51342;55.250;37.668;2023-07-22T03:07:47;5.90;;;1.58;;
45368;SDS011;51342;55.250;37.668;2023-07-22T03:10:19;3.47;;;1.63;;
45368;SDS011;51342;55.250;37.668;2023-07-22T03:12:51;2.70;;;1.30;;
45368;SDS011;51342;55.250;37.668;2023-07-22T03:15:26;2.65;;;1.42;;
45368;SDS011;51342;55.250;37.668;2023-07-22T03:17:57;3.60;;;1.40;;
45368;SDS011;51342;55.250;37.668;2023-07-22T03:20:30;2.33;;;1.40;;
45368;SDS011;51342;55.250;37.668;2023-07-22T03:23:02;3.25;;;1.30;;
45368;SDS011;51342;55.250;37.668;2023-07-22T03:25:34;2.08;;;1.33;;
45368;SDS011;51342;55.250;37.668;2023-07-22T03:28:06;3.47;;;1.35;;
45368;SDS011;51342;55.250;37.668;2023-07-22T03:30:38;3.15;;;1.40;;
45368;SDS011;51342;55.250;37.668;2023-07-22T03:33:10;3.90;;;1.45;;
45368;SDS011;51342;55.250;37.668;2023-07-22T03:35:41;3.83;;;1.80;;
45368;SDS011;51342;55.250;37.668;2023-07-22T03:38:13;2.50;;;1.38;;
45368;SDS011;51342;55.250;37.668;2023-07-22T03:40:44;3.30;;;1.48;;
45368;SDS011;51342;55.250;37.668;2023-07-22T03:43:16;1.77;;;1.23;;
45368;SDS011;51342;55.250;37.668;2023-07-22T03:45:47;3.45;;;1.50;;
45368;SDS011;51342;55.250;37.668;2023-07-22T03:48:18;3.30;;;1.45;;
45368;SDS011;51342;55.250;37.668;2023-07-22T03:50:50;3.78;;;1.60;;
45368;SDS011;51342;55.250;37.668;2023-07-22T03:53:21;3.13;;;1.58;;
45368;SDS011;51342;55.250;37.668;2023-07-22T03:55:53;2.13;;;1.38;;
45368;SDS011;51342;55.250;37.668;2023-07-22T03:58:24;2.80;;;1.40;;
45368;SDS011;51342;55.250;37.668;2023-07-22T04:00:55;4.35;;;1.63;;
45368;SDS011;51342;55.250;37.668;2023-07-22T04:06:20;3.67;;;1.35;;
45368;SDS011;51342;55.250;37.668;2023-07-22T04:08:52;3.45;;;1.33;;
45368;SDS011;51342;55.250;37.668;2023-07-22T04:11:23;5.38;;;1.40;;
45368;SDS011;51342;55.250;37.668;2023-07-22T04:13:54;2.92;;;1.50;;
45368;SDS011;51342;55.250;37.668;2023-07-22T04:16:26;4.78;;;1.42;;
45368;SDS011;51342;55.250;37.668;2023-07-22T04:18:57;2.63;;;1.50;;
45368;SDS011;51342;55.250;37.668;2023-07-22T04:21:29;3.53;;;1.52;;
45368;SDS011;51342;55.250;37.668;2023-07-22T04:24:03;3.95;;;1.65;;
45368;SDS011;51342;55.250;37.668;2023-07-22T04:26:35;3.30;;;1.23;;
45368;SDS011;51342;55.250;37.668;2023-07-22T04:29:07;3.97;;;1.58;;
45368;SDS011;51342;55.250;37.668;2023-07-22T04:31:41;3.45;;;1.77;;
45368;SDS011;51342;55.250;37.668;2023-07-22T04:34:14;6.13;;;1.42;;
45368;SDS011;51342;55.250;37.668;2023-07-22T04:36:51;4.75;;;1.52;;
45368;SDS011;51342;55.250;37.668;2023-07-22T04:39:22;4.60;;;1.50;;
45368;SDS011;51342;55.250;37.668;2023-07-22T04:41:54;3.58;;;1.38;;
45368;SDS011;51342;55.250;37.668;2023-07-22T04:44:25;4.65;;;1.58;;
45368;SDS011;51342;55.250;37.668;2023-07-22T04:46:58;2.63;;;1.50;;
45368;SDS011;51342;55.250;37.668;2023-07-22T04:49:29;2.55;;;1.23;;
45368;SDS011;51342;55.250;37.668;2023-07-22T04:52:00;3.33;;;1.50;;
45368;SDS011;51342;55.250;37.668;2023-07-22T04:54:32;2.78;;;1.42;;
45368;SDS011;51342;55.250;37.668;2023-07-22T04:57:04;2.78;;;1.52;;
45368;SDS011;51342;55.250;37.668;2023-07-22T04:59:35;3.42;;;1.38;;
45368;SDS011;51342;55.250;37.668;2023-07-22T05:02:10;2.47;;;1.27;;
45368;SDS011;51342;55.250;37.668;2023-07-22T05:04:42;2.33;;;1.23;;
45368;SDS011;51342;55.250;37.668;2023-07-22T05:07:13;2.05;;;1.10;;
45368;SDS011;51342;55.250;37.668;2023-07-22T05:09:45;4.38;;;1.27;;
45368;SDS011;51342;55.250;37.668;2023-07-22T05:12:17;3.47;;;1.20;;
45368;SDS011;51342;55.250;37.668;2023-07-22T05:14:48;1.92;;;1.15;;
45368;SDS011;51342;55.250;37.668;2023-07-22T05:17:20;3.53;;;1.10;;
45368;SDS011;51342;55.250;37.668;2023-07-22T05:19:52;2.67;;;1.30;;
45368;SDS011;51342;55.250;37.668;2023-07-22T05:22:23;2.50;;;1.30;;
45368;SDS011;51342;55.250;37.668;2023-07-22T05:24:55;3.15;;;1.38;;
45368;SDS011;51342;55.250;37.668;2023-07-22T05:27:27;2.13;;;1.00;;
45368;SDS011;51342;55.250;37.668;2023-07-22T05:29:58;1.70;;;1.00;;
45368;SDS011;51342;55.250;37.668;2023-07-22T05:32:30;1.00;;;0.75;;
45368;SDS011;51342;55.250;37.668;2023-07-22T05:35:02;2.58;;;1.27;;
45368;SDS011;51342;55.250;37.668;2023-07-22T05:37:35;1.45;;;1.00;;
45368;SDS011;51342;55.250;37.668;2023-07-22T05:40:07;2.88;;;1.13;;
45368;SDS011;51342;55.250;37.668;2023-07-22T05:42:40;2.20;;;0.85;;
45368;SDS011;51342;55.250;37.668;2023-07-22T05:45:12;1.65;;;0.95;;
45368;SDS011;51342;55.250;37.668;2023-07-22T05:47:46;1.33;;;0.90;;
45368;SDS011;51342;55.250;37.668;2023-07-22T05:50:17;1.58;;;1.13;;
45368;SDS011;51342;55.250;37.668;2023-07-22T05:52:48;3.17;;;1.33;;
45368;SDS011;51342;55.250;37.668;2023-07-22T05:55:20;2.20;;;1.20;;
45368;SDS011;51342;55.250;37.668;2023-07-22T05:57:51;1.73;;;0.98;;
45368;SDS011;51342;55.250;37.668;2023-07-22T06:00:22;4.20;;;1.30;;
45368;SDS011;51342;55.250;37.668;2023-07-22T06:02:54;3.08;;;1.40;;
45368;SDS011;51342;55.250;37.668;2023-07-22T06:08:56;3.40;;;1.40;;
45368;SDS011;51342;55.250;37.668;2023-07-22T06:11:27;2.95;;;1.48;;
45368;SDS011;51342;55.250;37.668;2023-07-22T06:14:01;2.30;;;1.10;;
45368;SDS011;51342;55.250;37.668;2023-07-22T06:16:34;3.03;;;1.17;;
45368;SDS011;51342;55.250;37.668;2023-07-22T06:19:05;2.17;;;1.08;;
45368;SDS011;51342;55.250;37.668;2023-07-22T06:21:36;3.30;;;1.20;;
45368;SDS011;51342;55.250;37.668;2023-07-22T06:24:08;1.70;;;1.02;;
45368;SDS011;51342;55.250;37.668;2023-07-22T06:26:39;1.42;;;1.02;;
45368;SDS011;51342;55.250;37.668;2023-07-22T06:29:11;2.28;;;1.15;;
45368;SDS011;51342;55.250;37.668;2023-07-22T06:31:42;1.70;;;1.00;;
45368;SDS011;51342;55.250;37.668;2023-07-22T06:34:14;3.10;;;1.08;;
45368;SDS011;51342;55.250;37.668;2023-07-22T06:36:45;2.42;;;1.13;;
45368;SDS011;51342;55.250;37.668;2023-07-22T06:39:16;2.10;;;1.10;;
45368;SDS011;51342;55.250;37.668;2023-07-22T06:41:48;2.88;;;1.30;;
45368;SDS011;51342;55.250;37.668;2023-07-22T06:44:19;3.42;;;1.20;;
45368;SDS011;51342;55.250;37.668;2023-07-22T06:46:51;2.67;;;1.23;;
45368;SDS011;51342;55.250;37.668;2023-07-22T06:49:25;3.97;;;1.20;;
45368;SDS011;51342;55.250;37.668;2023-07-22T06:51:56;3.80;;;1.17;;
45368;SDS011;51342;55.250;37.668;2023-07-22T06:54:27;2.58;;;1.55;;
45368;SDS011;51342;55.250;37.668;2023-07-22T06:56:59;1.70;;;1.20;;
45368;SDS011;51342;55.250;37.668;2023-07-22T06:59:31;3.25;;;1.35;;
45368;SDS011;51342;55.250;37.668;2023-07-22T07:02:03;2.45;;;1.00;;
45368;SDS011;51342;55.250;37.668;2023-07-22T07:04:35;2.75;;;1.35;;
45368;SDS011;51342;55.250;37.668;2023-07-22T07:07:07;3.42;;;1.20;;
45368;SDS011;51342;55.250;37.668;2023-07-22T07:09:38;2.63;;;1.38;;
45368;SDS011;51342;55.250;37.668;2023-07-22T07:12:11;2.38;;;1.00;;
45368;SDS011;51342;55.250;37.668;2023-07-22T07:14:42;1.30;;;0.90;;
45368;SDS011;51342;55.250;37.668;2023-07-22T07:17:14;3.80;;;1.20;;
45368;SDS011;51342;55.250;37.668;2023-07-22T07:19:45;3.42;;;1.27;;
45368;SDS011;51342;55.250;37.668;2023-07-22T07:22:17;2.45;;;1.13;;
45368;SDS011;51342;55.250;37.668;2023-07-22T07:24:48;2.08;;;1.10;;
45368;SDS011;51342;55.250;37.668;2023-07-22T07:27:20;1.67;;;1.05;;
45368;SDS011;51342;55.250;37.668;2023-07-22T07:29:51;2.42;;;1.30;;
45368;SDS011;51342;55.250;37.668;2023-07-22T07:32:23;3.15;;;1.25;;
45368;SDS011;51342;55.250;37.668;2023-07-22T07:34:54;2.03;;;1.20;;
45368;SDS011;51342;55.250;37.668;2023-07-22T07:37:26;5.70;;;1.40;;
45368;SDS011;51342;55.250;37.668;2023-07-22T07:39:57;2.60;;;1.10;;
45368;SDS011;51342;55.250;37.668;2023-07-22T07:42:30;2.90;;;0.90;;
45368;SDS011;51342;55.250;37.668;2023-07-22T07:45:02;1.88;;;1.20;;
45368;SDS011;51342;55.250;37.668;2023-07-22T07:47:34;1.95;;;0.90;;
45368;SDS011;51342;55.250;37.668;2023-07-22T07:50:06;4.72;;;1.10;;
45368;SDS011;51342;55.250;37.668;2023-07-22T07:52:40;2.08;;;0.90;;
45368;SDS011;51342;55.250;37.668;2023-07-22T07:55:11;2.25;;;0.90;;
45368;SDS011;51342;55.250;37.668;2023-07-22T07:57:44;1.95;;;0.70;;
45368;SDS011;51342;55.250;37.668;2023-07-22T08:00:15;1.88;;;0.90;;
45368;SDS011;51342;55.250;37.668;2023-07-22T08:02:52;2.03;;;1.00;;
45368;SDS011;51342;55.250;37.668;2023-07-22T08:08:18;1.75;;;0.90;;
45368;SDS011;51342;55.250;37.668;2023-07-22T08:13:31;1.30;;;0.82;;
45368;SDS011;51342;55.250;37.668;2023-07-22T08:16:05;4.00;;;1.45;;
45368;SDS011;51342;55.250;37.668;2023-07-22T08:18:38;2.28;;;0.90;;
45368;SDS011;51342;55.250;37.668;2023-07-22T08:21:10;1.92;;;0.73;;
45368;SDS011;51342;55.250;37.668;2023-07-22T08:23:41;1.80;;;0.75;;
45368;SDS011;51342;55.250;37.668;2023-07-22T08:26:16;1.48;;;0.80;;
45368;SDS011;51342;55.250;37.668;2023-07-22T08:28:51;9.40;;;1.13;;
45368;SDS011;51342;55.250;37.668;2023-07-22T08:31:23;1.20;;;0.63;;
45368;SDS011;51342;55.250;37.668;2023-07-22T08:33:54;1.15;;;0.80;;
45368;SDS011;51342;55.250;37.668;2023-07-22T08:36:26;1.55;;;1.13;;
45368;SDS011;51342;55.250;37.668;2023-07-22T08:38:57;2.65;;;0.77;;
45368;SDS011;51342;55.250;37.668;2023-07-22T08:41:29;1.85;;;0.70;;
45368;SDS011;51342;55.250;37.668;2023-07-22T08:44:00;2.30;;;0.85;;
45368;SDS011;51342;55.250;37.668;2023-07-22T08:46:35;1.27;;;0.80;;
45368;SDS011;51342;55.250;37.668;2023-07-22T08:49:10;2.65;;;0.85;;
45368;SDS011;51342;55.250;37.668;2023-07-22T08:51:41;2.33;;;0.90;;
45368;SDS011;51342;55.250;37.668;2023-07-22T08:54:13;1.35;;;0.70;;
45368;SDS011;51342;55.250;37.668;2023-07-22T08:56:45;1.45;;;0.70;;
45368;SDS011;51342;55.250;37.668;2023-07-22T08:59:17;2.47;;;0.80;;
45368;SDS011;51342;55.250;37.668;2023-07-22T09:01:49;2.10;;;1.25;;
45368;SDS011;51342;55.250;37.668;2023-07-22T09:04:22;2.58;;;0.80;;
45368;SDS011;51342;55.250;37.668;2023-07-22T09:06:54;1.13;;;0.80;;
45368;SDS011;51342;55.250;37.668;2023-07-22T09:09:27;3.22;;;1.10;;
45368;SDS011;51342;55.250;37.668;2023-07-22T09:11:58;2.50;;;0.93;;
45368;SDS011;51342;55.250;37.668;2023-07-22T09:14:31;2.53;;;1.10;;
45368;SDS011;51342;55.250;37.668;2023-07-22T09:17:04;2.28;;;0.80;;
45368;SDS011;51342;55.250;37.668;2023-07-22T09:19:36;2.22;;;0.75;;
45368;SDS011;51342;55.250;37.668;2023-07-22T09:22:08;2.20;;;0.80;;
45368;SDS011;51342;55.250;37.668;2023-07-22T09:24:39;2.50;;;0.70;;
45368;SDS011;51342;55.250;37.668;2023-07-22T09:27:11;1.58;;;0.82;;
45368;SDS011;51342;55.250;37.668;2023-07-22T09:29:43;1.15;;;0.65;;
45368;SDS011;51342;55.250;37.668;2023-07-22T09:32:17;2.55;;;0.82;;
45368;SDS011;51342;55.250;37.668;2023-07-22T09:34:54;2.20;;;0.93;;
45368;SDS011;51342;55.250;37.668;2023-07-22T09:37:36;2.97;;;1.20;;
45368;SDS011;51342;55.250;37.668;2023-07-22T09:40:14;1.70;;;0.77;;
45368;SDS011;51342;55.250;37.668;2023-07-22T09:45:24;0.73;;;0.65;;
45368;SDS011;51342;55.250;37.668;2023-07-22T09:47:56;1.35;;;0.60;;
45368;SDS011;51342;55.250;37.668;2023-07-22T09:50:29;1.85;;;0.75;;
45368;SDS011;51342;55.250;37.668;2023-07-22T09:53:01;1.42;;;0.88;;
45368;SDS011;51342;55.250;37.668;2023-07-22T09:55:34;0.95;;;0.60;;
45368;SDS011;51342;55.250;37.668;2023-07-22T09:58:05;2.20;;;1.00;;
45368;SDS011;51342;55.250;37.668;2023-07-22T10:00:40;2.58;;;1.25;;
45368;SDS011;51342;55.250;37.668;2023-07-22T10:03:16;2.05;;;0.93;;
45368;SDS011;51342;55.250;37.668;2023-07-22T10:05:50;1.80;;;0.63;;
45368;SDS011;51342;55.250;37.668;2023-07-22T10:08:26;2.30;;;0.88;;
45368;SDS011;51342;55.250;37.668;2023-07-22T10:11:00;1.75;;;0.80;;
45368;SDS011;51342;55.250;37.668;2023-07-22T10:13:36;1.48;;;0.93;;
45368;SDS011;51342;55.250;37.668;2023-07-22T10:16:08;2.13;;;0.98;;
45368;SDS011;51342;55.250;37.668;2023-07-22T10:18:40;1.92;;;0.80;;
45368;SDS011;51342;55.250;37.668;2023-07-22T10:21:14;3.80;;;1.00;;
45368;SDS011;51342;55.250;37.668;2023-07-22T10:23:46;2.55;;;0.90;;
45368;SDS011;51342;55.250;37.668;2023-07-22T10:26:19;2.05;;;0.52;;
45368;SDS011;51342;55.250;37.668;2023-07-22T10:28:51;2.35;;;0.80;;
45368;SDS011;51342;55.250;37.668;2023-07-22T10:31:23;1.95;;;0.80;;
45368;SDS011;51342;55.250;37.668;2023-07-22T10:33:55;2.05;;;0.90;;
45368;SDS011;51342;55.250;37.668;2023-07-22T10:36:28;2.38;;;0.75;;
45368;SDS011;51342;55.250;37.668;2023-07-22T10:39:01;2.63;;;0.90;;
45368;SDS011;51342;55.250;37.668;2023-07-22T10:41:33;1.85;;;0.80;;
45368;SDS011;51342;55.250;37.668;2023-07-22T10:44:09;3.45;;;0.98;;
45368;SDS011;51342;55.250;37.668;2023-07-22T10:46:41;1.27;;;1.05;;
45368;SDS011;51342;55.250;37.668;2023-07-22T10:49:16;2.28;;;1.10;;
45368;SDS011;51342;55.250;37.668;2023-07-22T10:51:48;1.92;;;0.90;;
45368;SDS011;51342;55.250;37.668;2023-07-22T10:54:33;2.83;;;0.90;;
45368;SDS011;51342;55.250;37.668;2023-07-22T10:59:55;3.33;;;1.13;;
45368;SDS011;51342;55.250;37.668;2023-07-22T11:02:30;2.88;;;1.00;;
45368;SDS011;51342;55.250;37.668;2023-07-22T11:05:02;3.35;;;1.02;;
45368;SDS011;51342;55.250;37.668;2023-07-22T11:07:43;2.35;;;0.90;;
45368;SDS011;51342;55.250;37.668;2023-07-22T11:10:19;1.67;;;1.00;;
45368;SDS011;51342;55.250;37.668;2023-07-22T11:12:50;2.50;;;0.93;;
45368;SDS011;51342;55.250;37.668;2023-07-22T11:15:22;1.77;;;0.98;;
45368;SDS011;51342;55.250;37.668;2023-07-22T11:17:54;3.35;;;1.45;;
45368;SDS011;51342;55.250;37.668;2023-07-22T11:20:25;2.33;;;1.00;;
45368;SDS011;51342;55.250;37.668;2023-07-22T11:23:01;1.40;;;0.90;;
45368;SDS011;51342;55.250;37.668;2023-07-22T11:25:33;1.60;;;0.90;;
45368;SDS011;51342;55.250;37.668;2023-07-22T11:28:05;2.03;;;1.23;;
45368;SDS011;51342;55.250;37.668;2023-07-22T11:30:36;2.35;;;1.10;;
45368;SDS011;51342;55.250;37.668;2023-07-22T11:33:08;3.30;;;1.48;;
45368;SDS011;51342;55.250;37.668;2023-07-22T11:35:42;4.15;;;1.13;;
45368;SDS011;51342;55.250;37.668;2023-07-22T11:38:13;1.48;;;0.90;;
45368;SDS011;51342;55.250;37.668;2023-07-22T11:40:45;3.15;;;1.08;;
45368;SDS011;51342;55.250;37.668;2023-07-22T11:43:18;2.70;;;1.40;;
45368;SDS011;51342;55.250;37.668;2023-07-22T11:45:51;1.95;;;0.90;;
45368;SDS011;51342;55.250;37.668;2023-07-22T11:48:23;2.03;;;0.90;;
45368;SDS011;51342;55.250;37.668;2023-07-22T11:50:58;4.70;;;1.05;;
45368;SDS011;51342;55.250;37.668;2023-07-22T11:53:30;1.85;;;0.82;;
45368;SDS011;51342;55.250;37.668;2023-07-22T11:56:02;2.05;;;1.02;;
45368;SDS011;51342;55.250;37.668;2023-07-22T11:58:33;4.55;;;1.30;;
45368;SDS011;51342;55.250;37.668;2023-07-22T12:01:06;1.30;;;0.70;;
45368;SDS011;51342;55.250;37.668;2023-07-22T12:03:41;2.83;;;1.02;;
45368;SDS011;51342;55.250;37.668;2023-07-22T12:06:12;3.60;;;1.08;;
45368;SDS011;51342;55.250;37.668;2023-07-22T12:11:58;1.60;;;1.08;;
45368;SDS011;51342;55.250;37.668;2023-07-22T12:14:34;1.83;;;0.90;;
45368;SDS011;51342;55.250;37.668;2023-07-22T12:17:07;3.38;;;0.98;;
45368;SDS011;51342;55.250;37.668;2023-07-22T12:19:50;2.42;;;0.93;;
45368;SDS011;51342;55.250;37.668;2023-07-22T12:22:22;2.97;;;0.80;;
45368;SDS011;51342;55.250;37.668;2023-07-22T12:24:54;3.10;;;1.10;;
45368;SDS011;51342;55.250;37.668;2023-07-22T12:27:25;2.53;;;1.50;;
45368;SDS011;51342;55.250;37.668;2023-07-22T12:29:56;4.43;;;1.80;;
45368;SDS011;51342;55.250;37.668;2023-07-22T12:32:28;2.60;;;1.30;;
45368;SDS011;51342;55.250;37.668;2023-07-22T12:34:59;1.42;;;1.00;;
45368;SDS011;51342;55.250;37.668;2023-07-22T12:37:31;1.70;;;0.90;;
45368;SDS011;51342;55.250;37.668;2023-07-22T12:40:02;1.70;;;0.90;;
45368;SDS011;51342;55.250;37.668;2023-07-22T12:42:38;2.53;;;1.23;;
45368;SDS011;51342;55.250;37.668;2023-07-22T12:45:11;2.33;;;0.98;;
45368;SDS011;51342;55.250;37.668;2023-07-22T12:47:43;1.85;;;0.85;;
45368;SDS011;51342;55.250;37.668;2023-07-22T12:50:15;2.67;;;1.02;;
45368;SDS011;51342;55.250;37.668;2023-07-22T12:52:46;1.67;;;0.90;;
45368;SDS011;51342;55.250;37.668;2023-07-22T12:55:17;1.30;;;0.80;;
45368;SDS011;51342;55.250;37.668;2023-07-22T12:57:49;1.58;;;0.80;;
45368;SDS011;51342;55.250;37.668;2023-07-22T13:00:20;1.85;;;0.95;;
45368;SDS011;51342;55.250;37.668;2023-07-22T13:02:52;2.08;;;0.90;;
45368;SDS011;51342;55.250;37.668;2023-07-22T13:05:23;2.20;;;1.00;;
45368;SDS011;51342;55.250;37.668;2023-07-22T13:07:55;3.15;;;1.00;;
45368;SDS011;51342;55.250;37.668;2023-07-22T13:10:37;3.53;;;1.00;;
45368;SDS011;51342;55.250;37.668;2023-07-22T13:13:10;2.30;;;0.90;;
45368;SDS011;51342;55.250;37.668;2023-07-22T13:15:42;3.55;;;1.08;;
45368;SDS011;51342;55.250;37.668;2023-07-22T13:18:13;2.78;;;1.00;;
45368;SDS011;51342;55.250;37.668;2023-07-22T13:20:44;2.60;;;1.00;;
45368;SDS011;51342;55.250;37.668;2023-07-22T13:23:16;2.42;;;1.10;;
45368;SDS011;51342;55.250;37.668;2023-07-22T13:25:47;2.63;;;0.93;;
45368;SDS011;51342;55.250;37.668;2023-07-22T13:28:21;2.13;;;0.95;;
45368;SDS011;51342;55.250;37.668;2023-07-22T13:30:55;2.58;;;0.90;;
45368;SDS011;51342;55.250;37.668;2023-07-22T13:33:26;2.80;;;0.90;;
45368;SDS011;51342;55.250;37.668;2023-07-22T13:35:57;3.13;;;0.80;;
45368;SDS011;51342;55.250;37.668;2023-07-22T13:38:29;2.22;;;1.00;;
45368;SDS011;51342;55.250;37.668;2023-07-22T13:41:00;2.85;;;0.90;;
45368;SDS011;51342;55.250;37.668;2023-07-22T13:43:32;2.22;;;0.90;;
45368;SDS011;51342;55.250;37.668;2023-07-22T13:46:03;2.65;;;0.98;;
45368;SDS011;51342;55.250;37.668;2023-07-22T13:48:35;2.63;;;1.10;;
45368;SDS011;51342;55.250;37.668;2023-07-22T13:51:06;4.20;;;1.30;;
45368;SDS011;51342;55.250;37.668;2023-07-22T13:53:37;2.22;;;0.90;;
45368;SDS011;51342;55.250;37.668;2023-07-22T13:56:09;1.10;;;0.70;;
45368;SDS011;51342;55.250;37.668;2023-07-22T13:58:40;2.00;;;0.90;;
45368;SDS011;51342;55.250;37.668;2023-07-22T14:01:12;2.33;;;1.00;;
45368;SDS011;51342;55.250;37.668;2023-07-22T14:03:44;2.83;;;2.10;;
45368;SDS011;51342;55.250;37.668;2023-07-22T14:06:15;5.53;;;1.67;;
45368;SDS011;51342;55.250;37.668;2023-07-22T14:14:19;1.65;;;1.00;;
45368;SDS011;51342;55.250;37.668;2023-07-22T14:16:50;1.60;;;1.30;;
45368;SDS011;51342;55.250;37.668;2023-07-22T14:19:22;3.03;;;1.10;;
45368;SDS011;51342;55.250;37.668;2023-07-22T14:21:54;1.75;;;1.08;;
45368;SDS011;51342;55.250;37.668;2023-07-22T14:24:26;2.42;;;1.02;;
45368;SDS011;51342;55.250;37.668;2023-07-22T14:26:57;3.60;;;1.10;;
45368;SDS011;51342;55.250;37.668;2023-07-22T14:29:29;5.88;;;1.30;;
45368;SDS011;51342;55.250;37.668;2023-07-22T14:32:00;2.38;;;1.05;;
45368;SDS011;51342;55.250;37.668;2023-07-22T14:34:31;4.20;;;1.40;;
45368;SDS011;51342;55.250;37.668;2023-07-22T14:37:03;2.67;;;1.50;;
45368;SDS011;51342;55.250;37.668;2023-07-22T14:39:35;3.35;;;1.50;;
45368;SDS011;51342;55.250;37.668;2023-07-22T14:42:07;3.92;;;1.50;;
45368;SDS011;51342;55.250;37.668;2023-07-22T14:44:38;1.88;;;1.38;;
45368;SDS011;51342;55.250;37.668;2023-07-22T14:47:09;2.85;;;1.40;;
45368;SDS011;51342;55.250;37.668;2023-07-22T14:49:41;2.28;;;1.10;;
45368;SDS011;51342;55.250;37.668;2023-07-22T14:52:12;4.50;;;1.33;;
45368;SDS011;51342;55.250;37.668;2023-07-22T14:54:43;3.45;;;1.45;;
45368;SDS011;51342;55.250;37.668;2023-07-22T14:57:16;2.05;;;1.23;;
45368;SDS011;51342;55.250;37.668;2023-07-22T14:59:48;4.95;;;1.25;;
45368;SDS011;51342;55.250;37.668;2023-07-22T15:02:19;3.17;;;1.08;;
45368;SDS011;51342;55.250;37.668;2023-07-22T15:04:51;3.83;;;1.63;;
45368;SDS011;51342;55.250;37.668;2023-07-22T15:07:22;4.25;;;1.30;;
45368;SDS011;51342;55.250;37.668;2023-07-22T15:09:54;2.40;;;1.10;;
45368;SDS011;51342;55.250;37.668;2023-07-22T15:12:26;1.40;;;1.00;;
45368;SDS011;51342;55.250;37.668;2023-07-22T15:14:58;2.00;;;1.20;;
45368;SDS011;51342;55.250;37.668;2023-07-22T15:17:31;1.83;;;1.10;;
45368;SDS011;51342;55.250;37.668;2023-07-22T15:20:05;3.05;;;1.52;;
45368;SDS011;51342;55.250;37.668;2023-07-22T15:22:36;2.97;;;1.25;;
45368;SDS011;51342;55.250;37.668;2023-07-22T15:25:08;2.17;;;1.20;;
45368;SDS011;51342;55.250;37.668;2023-07-22T15:27:40;3.65;;;1.25;;
45368;SDS011;51342;55.250;37.668;2023-07-22T15:30:11;1.75;;;1.00;;
45368;SDS011;51342;55.250;37.668;2023-07-22T15:32:43;2.38;;;1.55;;
45368;SDS011;51342;55.250;37.668;2023-07-22T15:35:14;2.55;;;1.20;;
45368;SDS011;51342;55.250;37.668;2023-07-22T15:37:45;3.08;;;1.10;;